< < Back
Terminal Aerodrome Forecast


Current Version              Previous Versions:   1  2  3  4  5  6  7  8  9  

Terminal Aerodrome Forecast

195
FTUS42 KFFC 231626 AAC
TAFFTY
TAF AMD
KFTY 231626Z 2316/2412 10010G18KT 5SM -SHRA BR OVC007
      TEMPO 2317/2318 2SM -TSRA BR OVC006CB
     FM232300 15009G18KT 6SM BR VCSH OVC009
     FM240500 19009KT 4SM BR OVC007=

Latest METAR

630
SAUS70 KWBC 232100 RRQ
MTRFTY
METAR KFTY 232053Z 08009KT 3SM +TSRA BR OVC007 12/10 A2971 RMK AO2
SLP060 P0006 60024 T01170100 56043


USA.gov is the U.S. government's official web portal to all federal, state and local government web resources and services.